createdAt,value
2023-03-26T00:01:36.771Z,100680.72
2023-03-26T00:04:07.354Z,100672.69
2023-03-26T00:06:39.440Z,100675.34
2023-03-26T00:09:09.731Z,100673.66
2023-03-26T00:11:37.386Z,100668.28
2023-03-26T00:14:05.807Z,100670.97
2023-03-26T00:16:33.948Z,100668.44
2023-03-26T00:19:02.557Z,100666.59
2023-03-26T00:21:31.260Z,100664.75
2023-03-26T00:24:04.550Z,100669.28
2023-03-26T00:26:37.762Z,100660.38
2023-03-26T00:29:06.780Z,100668.44
2023-03-26T00:31:35.092Z,100682.72
2023-03-26T00:34:06.090Z,100671.13
2023-03-26T00:36:36.029Z,100675.66
2023-03-26T00:39:05.677Z,100674.81
2023-03-26T00:41:37.127Z,100666.75
2023-03-26T00:44:05.142Z,100665.88
2023-03-26T00:46:32.715Z,100661.38
2023-03-26T00:49:01.912Z,100668.56
2023-03-26T00:51:30.008Z,100664.06
2023-03-26T00:53:58.137Z,100667.72
2023-03-26T00:56:25.539Z,100664.19
2023-03-26T00:58:52.805Z,100668.72
2023-03-26T01:01:28.946Z,100659.81
2023-03-26T01:04:07.468Z,100666.88
2023-03-26T01:06:38.964Z,100657.97
2023-03-26T01:09:32.991Z,100650.06
2023-03-26T01:12:03.409Z,100652.59
2023-03-26T01:14:30.887Z,100657.13
2023-03-26T01:17:01.502Z,100644.69
2023-03-26T01:19:44.821Z,100637.47
2023-03-26T01:22:17.091Z,100636.63
2023-03-26T01:24:46.213Z,100627.56
2023-03-26T01:27:39.018Z,100630.25
2023-03-26T01:30:43.322Z,100627.72
2023-03-26T01:33:21.070Z,100633.09
2023-03-26T01:35:57.249Z,100631.25
2023-03-26T01:38:30.675Z,100625.88
2023-03-26T01:41:00.799Z,100626.00
2023-03-26T01:43:43.902Z,100620.63
2023-03-26T01:46:12.956Z,100623.31
2023-03-26T01:48:43.152Z,100620.50
2023-03-26T01:51:11.973Z,100613.41
2023-03-26T01:53:47.102Z,100616.25
2023-03-26T01:56:45.960Z,100610.72
2023-03-26T01:59:37.533Z,100617.09
2023-03-26T02:02:21.908Z,100613.41
2023-03-26T02:04:55.045Z,100606.22
2023-03-26T02:07:41.852Z,100607.19
2023-03-26T02:10:16.325Z,100602.66
2023-03-26T02:12:45.780Z,100602.66
2023-03-26T02:15:13.350Z,100590.22
2023-03-26T02:17:40.857Z,100600.97
2023-03-26T02:20:11.083Z,100585.84
2023-03-26T02:22:41.442Z,100585.00
2023-03-26T02:25:13.423Z,100581.47
2023-03-26T02:27:41.828Z,100584.16
2023-03-26T02:30:29.764Z,100584.16
2023-03-26T02:33:00.157Z,100570.75
2023-03-26T02:35:35.266Z,100581.47
2023-03-26T02:38:03.693Z,100571.56
2023-03-26T02:40:31.022Z,100569.00
2023-03-26T02:42:58.896Z,100575.38
2023-03-26T02:45:28.653Z,100571.00
2023-03-26T02:48:01.585Z,100570.84
2023-03-26T02:50:50.144Z,100561.97
2023-03-26T02:53:37.547Z,100567.31
2023-03-26T02:56:28.623Z,100565.63
2023-03-26T02:59:16.218Z,100555.75
2023-03-26T03:01:45.816Z,100566.47
2023-03-26T03:04:15.738Z,100562.94
2023-03-26T03:06:44.650Z,100571.00
2023-03-26T03:09:12.604Z,100580.91
2023-03-26T03:11:40.901Z,100573.84
2023-03-26T03:14:08.796Z,100582.75
2023-03-26T03:16:36.590Z,100590.81
2023-03-26T03:19:07.327Z,100587.28
2023-03-26T03:21:39.245Z,100567.59
2023-03-26T03:24:08.615Z,100578.34
2023-03-26T03:26:47.798Z,100593.50
2023-03-26T03:29:36.011Z,100587.41
2023-03-26T03:32:23.706Z,100577.50
2023-03-26T03:34:54.076Z,100572.13
2023-03-26T03:37:21.410Z,100576.66
2023-03-26T03:39:53.113Z,100571.28
2023-03-26T03:42:22.662Z,100584.72
2023-03-26T03:44:53.004Z,100588.41
2023-03-26T03:47:42.760Z,100582.03
2023-03-26T03:50:10.759Z,100579.50
2023-03-26T03:52:44.579Z,100569.59
2023-03-26T03:55:13.996Z,100569.75
2023-03-26T03:57:49.160Z,100571.44
2023-03-26T04:00:20.276Z,100568.75
2023-03-26T04:02:59.414Z,100567.91
2023-03-26T04:05:29.125Z,100569.59
2023-03-26T04:07:56.346Z,100573.28
2023-03-26T04:10:26.623Z,100571.44
2023-03-26T04:13:13.491Z,100582.19
2023-03-26T04:15:56.204Z,100589.41
2023-03-26T04:18:24.031Z,100583.19
2023-03-26T04:20:51.450Z,100585.88
2023-03-26T04:23:26.689Z,100575.97
2023-03-26T04:26:06.896Z,100587.69
2023-03-26T04:29:02.666Z,100587.69
2023-03-26T04:31:32.011Z,100586.00
2023-03-26T04:34:07.783Z,100582.31
2023-03-26T04:36:42.936Z,100571.56
2023-03-26T04:39:13.216Z,100568.88
2023-03-26T04:41:59.347Z,100568.88
2023-03-26T04:44:34.916Z,100570.72
2023-03-26T04:47:06.840Z,100568.03
2023-03-26T04:49:45.812Z,100562.66
2023-03-26T04:52:15.652Z,100563.50
2023-03-26T04:54:58.163Z,100558.13
2023-03-26T04:57:37.522Z,100553.75
2023-03-26T05:00:18.866Z,100554.59
2023-03-26T05:02:54.060Z,100560.81
2023-03-26T05:05:22.318Z,100548.38
2023-03-26T05:07:50.958Z,100545.84
2023-03-26T05:10:21.082Z,100548.53
2023-03-26T05:12:55.823Z,100551.22
2023-03-26T05:15:27.227Z,100548.53
2023-03-26T05:17:55.677Z,100550.38
2023-03-26T05:20:30.383Z,100543.28
2023-03-26T05:22:58.350Z,100529.00
2023-03-26T05:25:31.597Z,100530.84
2023-03-26T05:28:01.556Z,100536.22
2023-03-26T05:30:49.050Z,100538.91
2023-03-26T05:33:16.546Z,100536.22
2023-03-26T05:36:07.191Z,100532.69
2023-03-26T05:38:35.711Z,100530.16
2023-03-26T05:41:07.557Z,100531.84
2023-03-26T05:43:36.799Z,100546.28
2023-03-26T05:46:12.282Z,100541.88
2023-03-26T05:48:40.007Z,100535.66
2023-03-26T05:51:08.972Z,100543.72
2023-03-26T05:53:41.156Z,100554.47
2023-03-26T05:56:31.289Z,100545.56
2023-03-26T05:59:17.410Z,100549.94
2023-03-26T06:02:03.504Z,100552.78
2023-03-26T06:04:41.093Z,100561.81
2023-03-26T06:07:41.812Z,100565.34
2023-03-26T06:10:19.696Z,100555.47
2023-03-26T06:12:47.543Z,100551.94
2023-03-26T06:15:15.523Z,100551.09
2023-03-26T06:17:58.638Z,100536.81
2023-03-26T06:20:37.580Z,100542.19
2023-03-26T06:23:11.404Z,100544.88
2023-03-26T06:25:55.175Z,100530.59
2023-03-26T06:28:41.431Z,100520.69
2023-03-26T06:31:27.308Z,100526.91
2023-03-26T06:34:13.501Z,100526.06
2023-03-26T06:36:44.424Z,100525.22
2023-03-26T06:39:12.243Z,100518.97
2023-03-26T06:41:49.321Z,100518.97
2023-03-26T06:44:36.853Z,100513.59
2023-03-26T06:47:33.264Z,100518.13
2023-03-26T06:50:12.954Z,100524.34
2023-03-26T06:52:58.471Z,100516.28
2023-03-26T06:55:41.804Z,100517.28
2023-03-26T06:58:27.451Z,100515.31
2023-03-26T07:01:13.530Z,100517.16
2023-03-26T07:03:59.858Z,100502.88
2023-03-26T07:06:53.812Z,100501.91
2023-03-26T07:09:39.440Z,100506.28
2023-03-26T07:12:39.041Z,100492.84
2023-03-26T07:15:28.427Z,100494.69
2023-03-26T07:17:56.363Z,100501.91
2023-03-26T07:20:32.128Z,100504.59
2023-03-26T07:22:59.824Z,100511.66
2023-03-26T07:25:35.970Z,100512.63
2023-03-26T07:28:34.332Z,100503.59
2023-03-26T07:31:36.199Z,100502.75
2023-03-26T07:34:46.514Z,100499.22
2023-03-26T07:37:54.786Z,100511.66
2023-03-26T07:40:53.442Z,100509.81
2023-03-26T07:44:06.010Z,100506.13
2023-03-26T07:46:49.235Z,100507.13
2023-03-26T07:49:35.385Z,100507.13
2023-03-26T07:52:10.844Z,100500.75
2023-03-26T07:55:17.636Z,100493.53
2023-03-26T07:58:30.255Z,100489.03
2023-03-26T08:01:25.111Z,100481.81
2023-03-26T08:04:26.301Z,100472.91
2023-03-26T08:07:47.592Z,100473.75
2023-03-26T08:10:35.429Z,100462.03
2023-03-26T08:13:31.118Z,100453.13
2023-03-26T08:15:59.103Z,100453.97
2023-03-26T08:18:46.383Z,100454.81
2023-03-26T08:21:31.791Z,100462.03
2023-03-26T08:24:06.617Z,100458.34
2023-03-26T08:27:01.560Z,100451.97
2023-03-26T08:29:28.752Z,100441.22
2023-03-26T08:31:57.566Z,100438.53
2023-03-26T08:34:24.847Z,100443.91
2023-03-26T08:36:52.135Z,100441.09
2023-03-26T08:39:22.336Z,100437.56
2023-03-26T08:42:01.679Z,100432.19
2023-03-26T08:45:06.565Z,100423.97
2023-03-26T08:48:01.893Z,100435.56
2023-03-26T08:50:50.914Z,100431.88
2023-03-26T08:54:04.669Z,100438.13
2023-03-26T08:56:45.970Z,100424.69
2023-03-26T08:59:34.494Z,100421.84
2023-03-26T09:02:23.322Z,100421.69
2023-03-26T09:05:28.902Z,100421.84
2023-03-26T09:08:30.066Z,100413.41
2023-03-26T09:11:15.408Z,100416.53
2023-03-26T09:14:20.235Z,100421.44
2023-03-26T09:17:16.091Z,100410.72
2023-03-26T09:20:02.729Z,100417.22
2023-03-26T09:23:21.248Z,100413.00
2023-03-26T09:26:07.062Z,100413.25
2023-03-26T09:28:58.423Z,100414.06
2023-03-26T09:31:28.507Z,100399.41
2023-03-26T09:34:27.521Z,100391.78
2023-03-26T09:37:05.861Z,100384.28
2023-03-26T09:39:51.726Z,100366.19
2023-03-26T09:42:44.009Z,100369.56
2023-03-26T09:45:27.125Z,100378.47
2023-03-26T09:48:20.125Z,100369.03
2023-03-26T09:51:09.048Z,100365.50
2023-03-26T09:53:59.820Z,100363.09
2023-03-26T09:56:54.270Z,100367.91
2023-03-26T09:59:48.493Z,100355.59
2023-03-26T10:02:45.534Z,100347.69
2023-03-26T10:05:46.897Z,100349.53
2023-03-26T10:08:32.021Z,100344.16
2023-03-26T10:11:17.820Z,100330.59
2023-03-26T10:13:59.125Z,100324.94
2023-03-26T10:16:49.715Z,100324.50
2023-03-26T10:19:28.985Z,100311.63
2023-03-26T10:22:17.797Z,100311.47
2023-03-26T10:24:56.798Z,100304.13
2023-03-26T10:27:33.298Z,100294.22
2023-03-26T10:30:09.787Z,100304.66
2023-03-26T10:32:55.329Z,100298.28
2023-03-26T10:35:31.995Z,100296.28
2023-03-26T10:38:38.097Z,100282.84
2023-03-26T10:41:08.527Z,100266.75
2023-03-26T10:43:54.619Z,100263.09
2023-03-26T10:46:39.162Z,100264.78
2023-03-26T10:49:06.348Z,100254.03
2023-03-26T10:51:51.158Z,100249.50
2023-03-26T10:54:42.101Z,100238.59
2023-03-26T10:57:25.389Z,100234.94
2023-03-26T10:59:58.189Z,100235.78
2023-03-26T11:02:36.885Z,100234.94
2023-03-26T11:05:19.468Z,100235.78
2023-03-26T11:08:02.089Z,100229.41
2023-03-26T11:10:52.626Z,100228.56
2023-03-26T11:13:32.052Z,100222.19
2023-03-26T11:16:05.548Z,100210.44
2023-03-26T11:18:39.938Z,100198.84
2023-03-26T11:21:19.511Z,100199.69
2023-03-26T11:24:06.651Z,100190.78
2023-03-26T11:26:42.715Z,100178.19
2023-03-26T11:29:47.540Z,100179.06
2023-03-26T11:32:21.253Z,100187.97
2023-03-26T11:34:58.415Z,100206.78
2023-03-26T11:37:35.153Z,100216.50
2023-03-26T11:40:11.549Z,100212.97
2023-03-26T11:42:41.139Z,100202.25
2023-03-26T11:45:16.544Z,100203.25
2023-03-26T11:47:50.657Z,100190.78
2023-03-26T11:50:25.687Z,100184.44
2023-03-26T11:53:12.433Z,100173.81
2023-03-26T11:55:44.630Z,100167.59
2023-03-26T11:58:24.870Z,100161.22
2023-03-26T12:00:54.635Z,100164.09
2023-03-26T12:03:22.362Z,100160.38
2023-03-26T12:05:59.334Z,100163.91
2023-03-26T12:08:39.653Z,100163.91
2023-03-26T12:11:12.287Z,100172.97
2023-03-26T12:13:42.191Z,100160.38
2023-03-26T12:16:15.478Z,100156.88
2023-03-26T12:18:45.702Z,100150.66
2023-03-26T12:21:17.595Z,100146.97
2023-03-26T12:23:56.893Z,100133.69
2023-03-26T12:26:45.682Z,100122.78
2023-03-26T12:29:15.625Z,100113.03
2023-03-26T12:31:52.253Z,100104.97
2023-03-26T12:34:21.660Z,100121.09
2023-03-26T12:36:52.243Z,100113.03
2023-03-26T12:40:06.971Z,100104.97
2023-03-26T12:44:53.000Z,100104.97
2023-03-26T12:47:46.120Z,100095.25
2023-03-26T12:48:39.489Z,100088.03
2023-03-26T12:51:25.429Z,100080.97
2023-03-26T12:53:55.340Z,100078.13
2023-03-26T12:56:45.586Z,100071.06
2023-03-26T12:59:33.942Z,100060.31
2023-03-26T13:02:01.273Z,100054.94
2023-03-26T13:05:02.238Z,100052.25
2023-03-26T13:07:51.989Z,100042.34
2023-03-26T13:10:36.149Z,100036.16
2023-03-26T13:13:31.082Z,100029.94
2023-03-26T13:16:09.596Z,100015.63
2023-03-26T13:18:45.587Z,99993.16
2023-03-26T13:21:26.682Z,99999.50
2023-03-26T13:24:24.164Z,99995.00
2023-03-26T13:27:27.034Z,99994.13
2023-03-26T13:30:01.052Z,99996.81
2023-03-26T13:32:44.831Z,99993.16
2023-03-26T13:35:36.520Z,99996.69
2023-03-26T13:38:12.568Z,99995.00
2023-03-26T13:40:58.502Z,99997.69
2023-03-26T13:43:34.711Z,99990.47
2023-03-26T13:46:08.222Z,99986.09
2023-03-26T13:48:43.309Z,99969.97
2023-03-26T13:51:57.018Z,99972.66
2023-03-26T13:54:32.051Z,99955.56
2023-03-26T13:56:59.284Z,99957.41
2023-03-26T13:59:44.168Z,99952.16
2023-03-26T14:02:23.053Z,99945.78
2023-03-26T14:04:56.729Z,99936.06
2023-03-26T14:07:40.723Z,99935.91
2023-03-26T14:10:16.839Z,99931.53
2023-03-26T14:12:57.173Z,99924.31
2023-03-26T14:15:37.691Z,99912.72
2023-03-26T14:18:49.960Z,99913.56
2023-03-26T14:21:29.413Z,99897.44
2023-03-26T14:23:56.896Z,99905.50
2023-03-26T14:26:49.808Z,99911.88
2023-03-26T14:29:32.037Z,99893.91
2023-03-26T14:32:08.127Z,99868.91
2023-03-26T14:34:42.737Z,99866.22
2023-03-26T14:37:28.694Z,99852.78
2023-03-26T14:40:27.031Z,99831.31
2023-03-26T14:43:09.539Z,99823.25
2023-03-26T14:45:45.993Z,99824.09
2023-03-26T14:48:38.325Z,99824.91
2023-03-26T14:51:29.133Z,99821.41
2023-03-26T14:54:04.001Z,99820.56
2023-03-26T14:56:52.414Z,99812.50
2023-03-26T14:59:56.427Z,99807.13
2023-03-26T15:02:50.967Z,99804.44
2023-03-26T15:05:57.181Z,99802.59
2023-03-26T15:09:15.346Z,99791.00
2023-03-26T15:12:12.167Z,99778.59
2023-03-26T15:15:26.015Z,99761.47
2023-03-26T15:18:18.304Z,99754.41
2023-03-26T15:20:56.293Z,99755.25
2023-03-26T15:23:42.872Z,99745.34
2023-03-26T15:26:29.026Z,99732.94
2023-03-26T15:29:04.551Z,99721.19
2023-03-26T15:32:01.914Z,99715.13
2023-03-26T15:35:02.600Z,99699.88
2023-03-26T15:37:54.601Z,99696.34
2023-03-26T15:40:30.656Z,99690.97
2023-03-26T15:43:12.357Z,99691.81
2023-03-26T15:45:48.639Z,99693.66
2023-03-26T15:48:16.212Z,99693.66
2023-03-26T15:51:22.239Z,99696.16
2023-03-26T15:54:08.132Z,99697.19
2023-03-26T15:57:07.988Z,99704.41
2023-03-26T16:00:15.452Z,99699.88
2023-03-26T16:03:10.239Z,99700.88
2023-03-26T16:06:18.989Z,99699.03
2023-03-26T16:09:10.358Z,99709.78
2023-03-26T16:11:43.492Z,99719.69
2023-03-26T16:14:17.363Z,99717.81
2023-03-26T16:16:57.464Z,99725.03
2023-03-26T16:19:49.526Z,99718.81
2023-03-26T16:22:43.516Z,99715.28
2023-03-26T16:25:27.808Z,99710.75
2023-03-26T16:28:21.301Z,99714.44
2023-03-26T16:31:10.649Z,99730.41
2023-03-26T16:34:18.296Z,99735.94
2023-03-26T16:36:49.821Z,99744.00
2023-03-26T16:39:23.042Z,99755.56
2023-03-26T16:42:05.706Z,99752.03
2023-03-26T16:44:51.711Z,99754.72
2023-03-26T16:47:44.644Z,99748.53
2023-03-26T16:50:33.572Z,99769.16
2023-03-26T16:53:15.595Z,99784.44
2023-03-26T16:55:51.774Z,99786.97
2023-03-26T16:58:33.588Z,99794.00
2023-03-26T17:01:04.325Z,99786.97
2023-03-26T17:03:52.158Z,99787.81
2023-03-26T17:06:36.394Z,99788.63
2023-03-26T17:09:15.980Z,99781.59
2023-03-26T17:11:51.015Z,99794.19
2023-03-26T17:14:55.626Z,99804.75
2023-03-26T17:17:44.484Z,99795.84
2023-03-26T17:20:36.865Z,99790.50
2023-03-26T17:23:30.528Z,99793.16
2023-03-26T17:26:32.834Z,99819.06
2023-03-26T17:29:24.113Z,99836.00
2023-03-26T17:32:12.416Z,99872.59
2023-03-26T17:34:46.975Z,99919.09
2023-03-26T17:37:17.466Z,99954.84
2023-03-26T17:39:46.818Z,99948.47
2023-03-26T17:42:35.535Z,99945.78
2023-03-26T17:45:09.108Z,99939.59
2023-03-26T17:48:15.422Z,99932.38
2023-03-26T17:50:45.949Z,99928.84
2023-03-26T17:53:28.646Z,99930.69
2023-03-26T17:56:03.298Z,99924.31
2023-03-26T17:58:42.628Z,99916.41
2023-03-26T18:01:09.905Z,99913.56
2023-03-26T18:03:44.996Z,99911.88
2023-03-26T18:06:32.529Z,99903.81
2023-03-26T18:09:18.466Z,99883.16
2023-03-26T18:12:03.656Z,99886.69
2023-03-26T18:15:09.495Z,99865.22
2023-03-26T18:17:43.624Z,99870.59
2023-03-26T18:20:21.260Z,99852.66
2023-03-26T18:22:50.569Z,99853.50
2023-03-26T18:25:28.618Z,99841.72
2023-03-26T18:27:57.402Z,99829.97
2023-03-26T18:30:26.343Z,99817.56
2023-03-26T18:33:00.904Z,99777.28
2023-03-26T18:35:41.550Z,99739.66
2023-03-26T18:38:17.002Z,99736.13
2023-03-26T18:40:46.291Z,99720.03
2023-03-26T18:43:34.401Z,99735.97
2023-03-26T18:46:04.159Z,99749.41
2023-03-26T18:48:31.872Z,99768.19
2023-03-26T18:51:06.225Z,99778.94
2023-03-26T18:53:41.276Z,99786.84
2023-03-26T18:56:39.456Z,99790.38
2023-03-26T18:59:27.984Z,99797.44
2023-03-26T19:01:57.690Z,99795.59
2023-03-26T19:04:26.885Z,99789.38
2023-03-26T19:06:56.206Z,99801.78
2023-03-26T19:09:31.742Z,99792.72
2023-03-26T19:12:20.756Z,99797.25
2023-03-26T19:14:55.429Z,99781.97
2023-03-26T19:17:26.546Z,99776.28
2023-03-26T19:19:55.560Z,99770.06
2023-03-26T19:22:25.680Z,99771.09
2023-03-26T19:24:59.542Z,99756.81
2023-03-26T19:27:27.556Z,99750.63
2023-03-26T19:29:54.976Z,99744.38
2023-03-26T19:32:32.826Z,99737.19
2023-03-26T19:35:02.114Z,99738.00
2023-03-26T19:37:31.443Z,99733.47
2023-03-26T19:40:30.097Z,99719.22
2023-03-26T19:42:58.368Z,99719.22
2023-03-26T19:45:26.455Z,99704.06
2023-03-26T19:48:03.999Z,99703.25
2023-03-26T19:50:43.818Z,99682.59
2023-03-26T19:53:17.704Z,99690.66
2023-03-26T19:55:56.484Z,99690.66
2023-03-26T19:58:26.027Z,99685.28
2023-03-26T20:00:55.791Z,99669.16
2023-03-26T20:03:38.186Z,99681.75
2023-03-26T20:06:07.078Z,99683.59
2023-03-26T20:08:34.442Z,99682.75
2023-03-26T20:11:01.827Z,99685.44
2023-03-26T20:13:31.131Z,99696.00
2023-03-26T20:16:07.543Z,99695.19
2023-03-26T20:18:35.252Z,99688.13
2023-03-26T20:21:09.015Z,99697.03
2023-03-26T20:23:37.077Z,99692.66
2023-03-26T20:26:04.562Z,99698.88
2023-03-26T20:28:38.740Z,99683.59
2023-03-26T20:31:24.709Z,99693.50
2023-03-26T20:33:54.026Z,99705.09
2023-03-26T20:36:34.127Z,99697.03
2023-03-26T20:39:08.315Z,99712.31
2023-03-26T20:41:40.306Z,99716.66
2023-03-26T20:44:15.908Z,99711.28
2023-03-26T20:46:44.194Z,99713.16
2023-03-26T20:49:12.529Z,99705.09
2023-03-26T20:51:41.919Z,99697.03
2023-03-26T20:54:23.422Z,99697.03
2023-03-26T20:56:51.363Z,99685.28
2023-03-26T20:59:26.366Z,99695.19
2023-03-26T21:01:56.891Z,99683.59
2023-03-26T21:04:26.136Z,99683.59
2023-03-26T21:07:00.359Z,99674.69
2023-03-26T21:09:34.668Z,99684.59
2023-03-26T21:12:06.487Z,99681.59
2023-03-26T21:14:44.017Z,99688.81
2023-03-26T21:17:20.708Z,99692.34
2023-03-26T21:19:49.275Z,99685.28
2023-03-26T21:22:36.795Z,99679.91
2023-03-26T21:25:10.418Z,99679.91
2023-03-26T21:27:59.015Z,99685.28
2023-03-26T21:30:27.167Z,99671.84
2023-03-26T21:32:54.435Z,99678.91
2023-03-26T21:35:22.178Z,99681.59
2023-03-26T21:37:49.809Z,99679.75
2023-03-26T21:40:18.335Z,99671.69
2023-03-26T21:42:49.140Z,99664.47
2023-03-26T21:45:17.416Z,99667.16
2023-03-26T21:47:46.318Z,99668.19
2023-03-26T21:50:17.136Z,99685.97
2023-03-26T21:52:48.220Z,99683.28
2023-03-26T21:55:16.681Z,99678.91
2023-03-26T21:57:58.797Z,99674.38
2023-03-26T22:00:42.852Z,99685.97
2023-03-26T22:03:32.687Z,99686.13
2023-03-26T22:06:07.226Z,99671.84
2023-03-26T22:08:40.069Z,99681.59
2023-03-26T22:11:10.167Z,99685.28
2023-03-26T22:13:38.907Z,99685.28
2023-03-26T22:16:08.332Z,99690.66
2023-03-26T22:18:35.743Z,99701.38
2023-03-26T22:21:03.236Z,99706.75
2023-03-26T22:23:34.393Z,99710.47
2023-03-26T22:26:03.099Z,99705.09
2023-03-26T22:28:30.780Z,99710.47
2023-03-26T22:30:58.596Z,99692.66
2023-03-26T22:33:26.767Z,99690.81
2023-03-26T22:35:56.044Z,99693.50
2023-03-26T22:38:23.632Z,99681.09
2023-03-26T22:40:57.885Z,99684.59
2023-03-26T22:43:25.481Z,99685.63
2023-03-26T22:45:54.736Z,99681.09
2023-03-26T22:48:23.785Z,99677.56
2023-03-26T22:51:02.777Z,99676.72
2023-03-26T22:53:30.877Z,99678.53
2023-03-26T22:55:59.613Z,99682.25
2023-03-26T22:58:28.210Z,99676.88
2023-03-26T23:01:17.989Z,99677.03
2023-03-26T23:03:45.746Z,99694.00
2023-03-26T23:06:13.861Z,99700.38
2023-03-26T23:08:41.860Z,99697.69
2023-03-26T23:11:12.661Z,99691.50
2023-03-26T23:13:40.810Z,99688.81
2023-03-26T23:16:10.200Z,99682.56
2023-03-26T23:18:38.702Z,99685.25
2023-03-26T23:21:12.144Z,99684.41
2023-03-26T23:23:39.722Z,99672.84
2023-03-26T23:26:07.392Z,99677.38
2023-03-26T23:28:35.042Z,99680.06
2023-03-26T23:31:04.915Z,99677.38
2023-03-26T23:33:35.529Z,99677.38
2023-03-26T23:36:09.119Z,99674.84
2023-03-26T23:38:43.442Z,99677.38
2023-03-26T23:41:14.972Z,99665.97
2023-03-26T23:43:54.610Z,99672.16
2023-03-26T23:46:25.655Z,99665.09
2023-03-26T23:48:53.253Z,99668.66
2023-03-26T23:51:21.621Z,99670.47
2023-03-26T23:53:49.768Z,99658.88
2023-03-26T23:56:17.656Z,99650.81
2023-03-26T23:58:44.942Z,99656.19
